Terminal Aerodrome Forecast
Issued by NWS Grand Forks, ND

Home | Current Version | Previous Version | Graphics & Text | Print | Product List | Glossary On
Versions: 1 2 3 4 5 6 7 8 9 10 11 12 13 14 15 16
000
FTUS43 KFGF 210927 AAA
TAFFAR
TAF AMD
KFAR 210927Z 2109/2206 02011KT P6SM OVC015
      TEMPO 2109/2111 3SM -RA BR OVC006
     FM211100 35010KT 6SM -RA OVC010
     FM211700 34014G22KT 6SM -RA OVC015
     FM212200 33014KT P6SM BKN020 OVC035=

USA.gov is the U.S. government's official web portal to all federal, state and local government web resources and services.